Time;durP1;ratioP1;P1;durP2;ratioP2;P2;SDS_P1;SDS_P2;PMS_P1;PMS_P2;Temp;Humidity;BMP_temperature;BMP_pressure;BME280_temperature;BME280_humidity;BME280_pressure;Samples;Min_cycle;Max_cycle;Signal;HPM_P1;HPM_P2
2022/03/27 00:01:44;;;;;;;31.30;14.10;;;2.10;27.30;;;;;;5062987;28;46283;-64
2022/03/27 00:04:09;;;;;;;27.50;13.63;;;2.10;27.40;;;;;;5063079;28;46518;-63
2022/03/27 00:06:35;;;;;;;37.70;13.90;;;2.00;27.50;;;;;;5072202;28;46626;-64
2022/03/27 00:09:01;;;;;;;30.23;15.03;;;2.00;27.70;;;;;;5062164;28;46382;-64
2022/03/27 00:11:29;;;;;;;29.10;14.30;;;1.90;27.80;;;;;;5064308;28;46363;-62
2022/03/27 00:13:58;;;;;;;29.92;14.02;;;2.00;28.00;;;;;;5062430;28;46508;-65
2022/03/27 00:16:24;;;;;;;29.88;15.15;;;1.90;28.00;;;;;;5062705;28;46568;-65
2022/03/27 00:18:50;;;;;;;27.42;13.40;;;1.90;28.10;;;;;;5064018;28;46225;-64
2022/03/27 00:21:17;;;;;;;30.92;14.60;;;1.80;28.10;;;;;;5062581;28;46460;-64
2022/03/27 00:23:43;;;;;;;34.30;14.70;;;1.80;28.30;;;;;;5064054;28;46290;-65
2022/03/27 00:26:10;;;;;;;39.80;14.93;;;1.70;28.30;;;;;;5062896;28;46454;-62
2022/03/27 00:28:36;;;;;;;26.17;13.40;;;1.70;28.40;;;;;;5064027;28;47360;-63
2022/03/27 00:31:05;;;;;;;39.13;14.30;;;1.70;28.40;;;;;;5065680;28;45889;-65
2022/03/27 00:33:31;;;;;;;34.38;14.15;;;1.70;28.50;;;;;;5064663;28;46394;-62
2022/03/27 00:35:58;;;;;;;29.65;14.35;;;1.70;28.60;;;;;;5063803;28;46291;-64
2022/03/27 00:38:28;;;;;;;35.67;13.45;;;1.70;28.70;;;;;;5062281;28;46194;-65
2022/03/27 00:40:55;;;;;;;32.00;14.35;;;1.70;28.60;;;;;;5062007;28;46420;-63
2022/03/27 00:43:22;;;;;;;32.72;14.18;;;1.60;28.60;;;;;;5063050;28;45896;-63
2022/03/27 00:45:47;;;;;;;35.58;15.65;;;1.60;28.70;;;;;;5047606;28;47240;-62
2022/03/27 00:48:18;;;;;;;38.83;14.63;;;1.80;28.90;;;;;;5063558;28;46421;-64
2022/03/27 00:50:44;;;;;;;31.40;14.00;;;1.60;28.80;;;;;;5062364;28;46350;-64
2022/03/27 00:53:10;;;;;;;35.88;13.13;;;1.50;28.80;;;;;;5065570;28;46357;-63
2022/03/27 00:55:36;;;;;;;27.30;13.73;;;1.50;28.90;;;;;;5063559;28;46375;-64
2022/03/27 00:58:03;;;;;;;27.55;14.00;;;1.50;29.00;;;;;;5067166;28;46340;-62
2022/03/27 01:00:37;;;;;;;41.15;16.48;;;1.50;29.50;;;;;;5065319;28;46376;-63
2022/03/27 01:03:07;;;;;;;42.35;17.95;;;1.30;30.00;;;;;;5062362;28;46322;-64
2022/03/27 01:05:33;;;;;;;34.58;14.55;;;1.40;29.80;;;;;;5063063;28;46633;-65
2022/03/27 01:08:04;;;;;;;34.57;14.70;;;1.50;29.80;;;;;;5063772;28;46378;-64
2022/03/27 01:10:29;;;;;;;31.85;14.32;;;1.50;29.60;;;;;;5061084;28;46525;-64
2022/03/27 01:12:56;;;;;;;30.23;14.90;;;1.50;29.60;;;;;;5061165;28;46476;-65
2022/03/27 01:15:24;;;;;;;34.88;15.25;;;1.60;29.60;;;;;;5061246;28;46367;-64
2022/03/27 01:17:50;;;;;;;32.30;14.73;;;1.50;29.60;;;;;;5059363;28;46359;-64
2022/03/27 01:20:42;;;;;;;31.10;14.77;;;1.60;29.60;;;;;;5069825;28;45972;-65
2022/03/27 01:23:12;;;;;;;42.90;16.08;;;1.60;29.70;;;;;;5063849;28;46408;-63
2022/03/27 01:25:40;;;;;;;40.78;17.25;;;1.60;29.60;;;;;;5064373;28;46650;-64
2022/03/27 01:28:06;;;;;;;31.92;14.77;;;1.70;29.60;;;;;;5071848;28;46553;-64
2022/03/27 01:30:32;;;;;;;40.65;14.75;;;1.50;29.80;;;;;;5060753;28;46302;-63
2022/03/27 01:32:58;;;;;;;28.40;15.47;;;1.40;30.00;;;;;;5061369;28;46529;-63
2022/03/27 01:35:24;;;;;;;29.40;13.57;;;1.40;30.00;;;;;;5064339;28;46453;-62
2022/03/27 01:37:50;;;;;;;30.53;14.23;;;1.40;30.00;;;;;;5064034;28;46448;-65
2022/03/27 01:40:17;;;;;;;26.48;12.85;;;1.40;30.20;;;;;;5061660;28;46362;-65
2022/03/27 01:42:43;;;;;;;32.72;13.45;;;1.30;31.40;;;;;;5060757;28;46350;-64
2022/03/27 01:45:09;;;;;;;27.35;13.55;;;1.30;30.50;;;;;;5066831;28;46512;-64
2022/03/27 01:47:36;;;;;;;31.40;14.48;;;1.30;30.30;;;;;;5060284;28;46444;-64
2022/03/27 01:50:03;;;;;;;30.85;14.20;;;1.40;30.50;;;;;;5060642;28;46661;-62
2022/03/27 01:52:29;;;;;;;30.75;14.27;;;1.30;30.30;;;;;;5060815;28;46493;-64
2022/03/27 01:54:55;;;;;;;34.27;13.30;;;1.30;30.30;;;;;;5060776;28;46460;-64
2022/03/27 01:57:20;;;;;;;31.60;14.97;;;1.30;30.40;;;;;;5070863;28;47824;-64
2022/03/27 01:59:46;;;;;;;27.80;13.40;;;1.30;30.40;;;;;;5062274;28;46366;-64
2022/03/27 02:02:11;;;;;;;30.27;12.90;;;1.20;30.50;;;;;;5062033;28;46139;-67
2022/03/27 02:04:37;;;;;;;31.47;14.40;;;1.10;30.60;;;;;;5060887;28;45932;-63
2022/03/27 02:07:03;;;;;;;26.70;13.80;;;1.00;31.30;;;;;;5031484;28;46577;-64
2022/03/27 02:09:29;;;;;;;34.37;14.80;;;1.00;30.80;;;;;;5060872;28;46507;-64
2022/03/27 02:11:54;;;;;;;32.33;15.30;;;1.00;30.80;;;;;;5060706;28;45854;-63
2022/03/27 02:14:20;;;;;;;29.67;12.70;;;1.00;30.90;;;;;;5071134;28;46505;-63
2022/03/27 02:16:45;;;;;;;29.20;13.90;;;1.00;31.00;;;;;;5066465;28;47226;-64
2022/03/27 02:19:11;;;;;;;35.87;13.77;;;1.00;30.90;;;;;;5063511;28;46340;-63
2022/03/27 02:21:38;;;;;;;29.40;13.23;;;1.00;30.90;;;;;;5071503;28;46438;-65
2022/03/27 02:24:04;;;;;;;31.63;13.50;;;1.00;30.80;;;;;;5061917;28;45985;-63
2022/03/27 02:26:31;;;;;;;36.92;14.07;;;1.00;30.80;;;;;;5061626;28;47934;-64
2022/03/27 02:28:56;;;;;;;29.92;13.85;;;1.00;30.80;;;;;;5061451;28;45770;-65
2022/03/27 02:31:22;;;;;;;33.67;13.63;;;0.90;30.90;;;;;;5063475;28;46266;-63
2022/03/27 02:33:48;;;;;;;30.97;14.00;;;0.90;31.20;;;;;;5060674;28;46470;-63
2022/03/27 02:36:15;;;;;;;26.02;12.63;;;0.80;31.30;;;;;;5059385;28;46491;-62
2022/03/27 02:38:41;;;;;;;32.45;13.45;;;0.80;31.50;;;;;;5059868;28;46491;-63
2022/03/27 02:41:07;;;;;;;30.63;13.50;;;0.80;31.50;;;;;;5055159;28;46433;-65
2022/03/27 02:43:33;;;;;;;29.63;13.52;;;0.80;31.50;;;;;;5059435;28;46496;-63
2022/03/27 02:45:59;;;;;;;37.70;14.75;;;0.80;31.50;;;;;;5047611;28;47696;-63
2022/03/27 02:48:25;;;;;;;33.97;14.18;;;0.80;31.50;;;;;;5059650;28;46302;-64
2022/03/27 02:50:51;;;;;;;31.30;14.77;;;0.90;31.60;;;;;;5061378;28;46571;-63
2022/03/27 02:53:16;;;;;;;27.83;12.87;;;0.70;31.40;;;;;;5059913;28;46550;-65
2022/03/27 02:55:42;;;;;;;24.10;12.37;;;0.70;31.40;;;;;;5059962;28;47369;-64
2022/03/27 02:58:08;;;;;;;30.43;12.37;;;0.70;31.40;;;;;;5054903;28;46528;-64
2022/03/27 03:00:34;;;;;;;33.10;13.57;;;0.60;31.30;;;;;;5060753;28;46475;-63
2022/03/27 03:03:00;;;;;;;30.15;13.98;;;0.60;31.40;;;;;;5061320;28;46556;-62
2022/03/27 03:05:26;;;;;;;36.90;11.73;;;0.50;31.20;;;;;;5058953;28;46182;-63
2022/03/27 03:07:52;;;;;;;26.33;12.73;;;0.50;31.20;;;;;;5058443;28;45860;-63
2022/03/27 03:10:18;;;;;;;28.13;13.90;;;0.40;31.10;;;;;;5061080;28;46372;-64
2022/03/27 03:12:44;;;;;;;30.17;13.07;;;0.40;31.10;;;;;;5059704;28;46226;-64
2022/03/27 03:15:10;;;;;;;28.75;12.50;;;0.40;31.20;;;;;;5057361;28;46466;-64
2022/03/27 03:17:37;;;;;;;25.00;12.10;;;0.40;31.20;;;;;;5057776;28;46402;-64
2022/03/27 03:20:03;;;;;;;25.20;11.45;;;0.30;31.10;;;;;;5062920;28;46604;-64
2022/03/27 03:22:29;;;;;;;30.10;12.88;;;0.20;31.00;;;;;;5061659;28;46381;-64
2022/03/27 03:24:55;;;;;;;26.83;13.40;;;0.10;31.60;;;;;;5060627;28;46497;-63
2022/03/27 03:27:21;;;;;;;35.53;12.57;;;0.10;31.70;;;;;;5059960;28;46468;-63
2022/03/27 03:29:46;;;;;;;28.53;13.57;;;0.10;31.70;;;;;;5058984;28;46400;-63
2022/03/27 03:32:12;;;;;;;23.73;12.17;;;0.00;31.50;;;;;;5064328;28;46477;-63
2022/03/27 03:34:38;;;;;;;30.70;12.52;;;0.10;31.50;;;;;;5062155;28;47981;-64
2022/03/27 03:37:04;;;;;;;30.40;12.83;;;0.20;31.50;;;;;;5068154;28;46329;-63
2022/03/27 03:39:30;;;;;;;30.25;12.38;;;0.20;31.30;;;;;;5063012;28;45732;-64
2022/03/27 03:41:56;;;;;;;32.33;12.43;;;0.30;32.60;;;;;;5062112;28;46362;-65
2022/03/27 03:44:22;;;;;;;29.87;12.50;;;0.30;31.40;;;;;;5062208;28;47249;-66
2022/03/27 03:46:48;;;;;;;23.77;11.32;;;0.30;31.30;;;;;;5061664;28;46173;-64
2022/03/27 03:49:14;;;;;;;24.30;11.77;;;0.20;31.50;;;;;;5062044;28;46550;-64
2022/03/27 03:51:40;;;;;;;26.58;12.88;;;0.10;31.80;;;;;;5063240;28;46502;-64
2022/03/27 03:54:09;;;;;;;27.60;12.07;;;0.00;32.00;;;;;;5062725;28;46503;-64
2022/03/27 03:56:36;;;;;;;29.40;12.55;;;0.00;32.20;;;;;;5063029;28;46052;-65
2022/03/27 03:59:02;;;;;;;26.30;13.10;;;-0.10;32.30;;;;;;5065618;28;46273;-64
2022/03/27 04:01:27;;;;;;;32.67;13.07;;;-0.10;32.30;;;;;;5062409;28;46657;-64
2022/03/27 04:03:53;;;;;;;24.43;12.17;;;0.00;32.50;;;;;;5057349;28;46406;-63
2022/03/27 04:06:20;;;;;;;27.60;12.60;;;-0.10;32.40;;;;;;5070134;28;46497;-64
2022/03/27 04:08:45;;;;;;;31.77;13.43;;;-0.10;32.40;;;;;;5063984;28;46396;-65
2022/03/27 04:11:16;;;;;;;29.37;12.67;;;0.00;32.40;;;;;;5063381;28;46469;-64
2022/03/27 04:13:43;;;;;;;35.15;13.50;;;0.00;32.40;;;;;;5062281;28;46243;-63
2022/03/27 04:16:10;;;;;;;26.92;11.90;;;0.10;32.40;;;;;;5066464;28;46353;-62
2022/03/27 04:18:35;;;;;;;30.15;12.70;;;0.20;32.40;;;;;;5062284;28;46293;-64
2022/03/27 04:21:01;;;;;;;33.10;13.63;;;0.20;32.50;;;;;;5063016;28;46309;-65
2022/03/27 04:23:26;;;;;;;27.20;12.50;;;0.30;32.60;;;;;;5065251;28;46383;-64
2022/03/27 04:25:52;;;;;;;31.03;12.30;;;0.30;32.70;;;;;;5062185;28;46491;-63
2022/03/27 04:28:17;;;;;;;38.30;13.43;;;0.30;32.70;;;;;;5063142;28;46366;-64
2022/03/27 04:30:43;;;;;;;30.63;12.33;;;0.30;32.90;;;;;;5070464;28;46475;-64
2022/03/27 04:33:10;;;;;;;24.57;13.40;;;0.30;32.90;;;;;;5068114;28;46255;-64
2022/03/27 04:35:35;;;;;;;29.92;12.75;;;0.30;33.00;;;;;;5070512;28;46456;-63
2022/03/27 04:38:01;;;;;;;29.73;12.77;;;0.20;33.00;;;;;;5073767;28;46369;-63
2022/03/27 04:40:27;;;;;;;22.10;11.23;;;0.20;33.20;;;;;;5062856;28;46264;-64
2022/03/27 04:42:52;;;;;;;25.47;11.30;;;0.10;33.30;;;;;;5069284;28;46399;-65
2022/03/27 04:45:18;;;;;;;26.00;11.50;;;-0.10;33.30;;;;;;5059375;28;45842;-64
2022/03/27 04:47:44;;;;;;;29.30;11.30;;;-0.20;34.60;;;;;;5063591;28;46352;-64
2022/03/27 04:50:10;;;;;;;31.87;12.57;;;-0.30;33.50;;;;;;5063273;28;46692;-64
2022/03/27 04:52:37;;;;;;;29.83;12.73;;;-0.30;33.40;;;;;;5062042;28;46864;-63
2022/03/27 04:55:03;;;;;;;28.00;10.65;;;-0.20;33.40;;;;;;5061574;28;46660;-64
2022/03/27 04:57:39;;;;;;;29.40;11.65;;;-0.30;33.30;;;;;;5062586;28;46344;-64
2022/03/27 05:00:10;;;;;;;31.75;12.05;;;-0.30;33.50;;;;;;5062298;28;46039;-65
2022/03/27 05:02:39;;;;;;;24.35;11.80;;;-0.40;33.40;;;;;;5067438;28;46596;-65
2022/03/27 05:05:06;;;;;;;23.90;10.80;;;-0.40;33.50;;;;;;5060896;28;46266;-65
2022/03/27 05:07:32;;;;;;;25.95;12.18;;;-0.40;33.40;;;;;;5074493;28;46302;-63
2022/03/27 05:09:57;;;;;;;25.40;11.30;;;-0.40;33.40;;;;;;5069587;28;45778;-64
2022/03/27 05:12:23;;;;;;;26.03;11.20;;;-0.50;33.30;;;;;;5063062;28;47185;-64
2022/03/27 05:14:49;;;;;;;24.60;12.57;;;-0.40;33.40;;;;;;5061390;28;46453;-63
2022/03/27 05:17:14;;;;;;;27.40;11.73;;;-0.40;33.40;;;;;;5062627;28;46353;-62
2022/03/27 05:19:41;;;;;;;26.23;11.67;;;-0.30;33.30;;;;;;5062488;28;46491;-65
2022/03/27 05:22:07;;;;;;;26.23;11.07;;;-0.30;33.20;;;;;;5063095;28;47292;-64
2022/03/27 05:24:33;;;;;;;24.17;9.98;;;-0.20;33.20;;;;;;5065262;28;46007;-64
2022/03/27 05:26:58;;;;;;;23.80;12.50;;;-0.10;33.30;;;;;;5061647;28;45841;-65
2022/03/27 05:29:24;;;;;;;27.93;11.40;;;-0.20;33.30;;;;;;5063763;28;46445;-64
2022/03/27 05:31:51;;;;;;;38.80;12.57;;;0.00;33.40;;;;;;5061462;28;46128;-64
2022/03/27 05:34:17;;;;;;;31.35;12.95;;;0.00;33.40;;;;;;5060426;28;46521;-65
2022/03/27 05:36:43;;;;;;;39.03;12.77;;;0.20;33.50;;;;;;5063915;28;46747;-64
2022/03/27 05:39:09;;;;;;;45.70;21.50;;;0.40;33.70;;;;;;5060870;28;46511;-63
2022/03/27 05:41:34;;;;;;;36.20;18.53;;;0.90;33.90;;;;;;5061452;28;46608;-63
2022/03/27 05:44:00;;;;;;;34.13;16.07;;;1.40;34.40;;;;;;5061847;28;46478;-63
2022/03/27 05:46:25;;;;;;;31.50;15.70;;;1.80;34.60;;;;;;5062085;28;46403;-65
2022/03/27 05:48:51;;;;;;;27.83;13.70;;;2.30;34.80;;;;;;5063039;28;46512;-64
2022/03/27 05:51:17;;;;;;;28.43;13.73;;;2.50;34.70;;;;;;5061001;28;47119;-64
2022/03/27 05:53:43;;;;;;;28.87;13.50;;;2.80;34.50;;;;;;5060873;28;46358;-65
2022/03/27 05:56:09;;;;;;;32.22;12.95;;;2.80;34.20;;;;;;5061008;28;45894;-64
2022/03/27 05:58:37;;;;;;;40.60;13.82;;;3.20;33.50;;;;;;5060626;28;45878;-63
2022/03/27 06:01:03;;;;;;;36.45;13.70;;;3.10;33.50;;;;;;5058389;28;47152;-64
2022/03/27 06:03:28;;;;;;;31.20;13.55;;;3.00;33.30;;;;;;5061782;28;46526;-64
2022/03/27 06:05:54;;;;;;;27.83;13.40;;;2.90;33.30;;;;;;5063620;28;46556;-64
2022/03/27 06:08:19;;;;;;;36.23;14.80;;;2.90;33.40;;;;;;5059883;28;46508;-64
2022/03/27 06:10:45;;;;;;;38.77;15.77;;;2.90;33.80;;;;;;5057738;28;47050;-67
2022/03/27 06:13:10;;;;;;;49.43;19.00;;;3.00;34.20;;;;;;5059313;28;46412;-64
2022/03/27 06:15:36;;;;;;;40.87;16.00;;;3.40;33.70;;;;;;5062160;28;46447;-65
2022/03/27 06:18:02;;;;;;;36.33;16.77;;;3.80;32.80;;;;;;5057512;28;45876;-64
2022/03/27 06:20:31;;;;;;;35.22;16.20;;;3.90;32.40;;;;;;5056662;28;46503;-64
2022/03/27 06:22:58;;;;;;;31.38;14.95;;;3.90;32.40;;;;;;5061387;28;45885;-64
2022/03/27 06:25:26;;;;;;;30.15;15.15;;;3.80;32.50;;;;;;5059054;28;46420;-64
2022/03/27 06:27:52;;;;;;;28.43;13.90;;;3.90;32.80;;;;;;5059017;28;46404;-65
2022/03/27 06:30:21;;;;;;;32.90;14.57;;;4.00;32.80;;;;;;5061713;28;46393;-65
2022/03/27 06:32:47;;;;;;;35.08;15.70;;;4.20;32.90;;;;;;5059263;28;45802;-65
2022/03/27 06:35:15;;;;;;;41.17;15.38;;;4.20;33.00;;;;;;5060248;28;46402;-66
2022/03/27 06:37:41;;;;;;;30.00;14.80;;;4.40;32.80;;;;;;5059585;28;46386;-66
2022/03/27 06:40:08;;;;;;;27.73;14.23;;;4.50;32.70;;;;;;5058798;28;46524;-64
2022/03/27 06:42:34;;;;;;;38.20;15.10;;;4.70;32.50;;;;;;5057859;28;46403;-64
2022/03/27 06:45:00;;;;;;;40.27;16.13;;;4.90;32.30;;;;;;5059052;28;46428;-65
2022/03/27 06:47:27;;;;;;;32.93;15.17;;;5.10;32.00;;;;;;5060206;28;45893;-66
2022/03/27 06:49:57;;;;;;;40.23;15.47;;;5.40;31.80;;;;;;5057931;28;46378;-67
2022/03/27 06:52:24;;;;;;;32.03;14.90;;;5.60;31.80;;;;;;5061303;28;46483;-66
2022/03/27 06:54:50;;;;;;;35.00;16.50;;;5.80;31.80;;;;;;5060296;28;46434;-65
2022/03/27 06:57:16;;;;;;;31.50;15.40;;;6.10;31.60;;;;;;5058032;28;46399;-65
2022/03/27 07:05:14;;;;;;;38.80;16.20;;;6.80;31.20;;;;;;5060575;28;46362;-64
2022/03/27 07:07:43;;;;;;;44.50;16.60;;;7.00;31.10;;;;;;5061094;28;46666;-66
2022/03/27 07:10:10;;;;;;;34.97;16.20;;;7.20;31.10;;;;;;5064806;28;46327;-65
2022/03/27 07:12:36;;;;;;;41.13;19.00;;;7.30;31.10;;;;;;5061635;28;46339;-69
2022/03/27 07:15:01;;;;;;;36.63;18.00;;;7.30;31.30;;;;;;5063603;28;46386;-67
2022/03/27 07:17:27;;;;;;;40.50;18.40;;;7.50;31.10;;;;;;5068439;28;46608;-66
2022/03/27 07:19:52;;;;;;;36.40;17.60;;;7.50;30.70;;;;;;5064944;28;46578;-66
2022/03/27 07:22:18;;;;;;;41.90;18.03;;;7.70;30.70;;;;;;5067813;28;45867;-68
2022/03/27 07:24:45;;;;;;;40.03;17.03;;;8.10;30.50;;;;;;5071807;28;45822;-66
2022/03/27 07:27:12;;;;;;;37.40;17.70;;;8.30;30.10;;;;;;5066038;28;46290;-67
2022/03/27 07:29:38;;;;;;;47.90;17.77;;;8.60;30.00;;;;;;5062691;28;46398;-66
2022/03/27 07:32:07;;;;;;;38.03;17.67;;;8.70;29.70;;;;;;5073583;28;46374;-65
2022/03/27 07:34:35;;;;;;;37.63;17.27;;;8.90;29.50;;;;;;5064140;28;46716;-66
2022/03/27 07:37:01;;;;;;;48.00;17.30;;;9.10;29.30;;;;;;5063073;28;46543;-65
2022/03/27 07:39:27;;;;;;;38.93;17.43;;;9.30;29.10;;;;;;5061675;28;47707;-65
2022/03/27 07:41:53;;;;;;;39.90;17.50;;;9.40;29.00;;;;;;5062258;28;46308;-65
2022/03/27 07:44:18;;;;;;;41.90;18.83;;;9.70;28.70;;;;;;5061895;28;46277;-66
2022/03/27 07:46:44;;;;;;;40.27;17.97;;;9.80;28.50;;;;;;5066608;28;46717;-66
2022/03/27 07:49:10;;;;;;;36.03;16.37;;;9.80;28.30;;;;;;5064891;28;47971;-67
2022/03/27 07:51:36;;;;;;;40.20;17.67;;;9.90;28.20;;;;;;5059447;28;46574;-64
2022/03/27 07:54:02;;;;;;;32.80;16.60;;;9.90;28.10;;;;;;5062159;28;46572;-64
2022/03/27 07:56:29;;;;;;;33.57;16.33;;;10.00;27.20;;;;;;5064210;28;46625;-63
2022/03/27 07:58:55;;;;;;;38.37;16.47;;;10.10;27.10;;;;;;5061183;28;46573;-63
2022/03/27 08:01:22;;;;;;;40.93;17.00;;;10.30;27.10;;;;;;5062902;28;46501;-64
2022/03/27 08:03:49;;;;;;;37.60;17.40;;;10.40;27.10;;;;;;5060955;28;46416;-65
2022/03/27 08:06:15;;;;;;;37.57;18.70;;;10.60;26.50;;;;;;5060608;28;46616;-65
2022/03/27 08:08:41;;;;;;;37.47;15.90;;;10.80;26.70;;;;;;5060310;28;46287;-65
2022/03/27 08:11:07;;;;;;;40.70;17.47;;;11.00;26.80;;;;;;5059461;28;46212;-67
2022/03/27 08:13:32;;;;;;;32.27;16.50;;;11.10;26.80;;;;;;5061445;28;46310;-64
2022/03/27 08:15:58;;;;;;;36.97;16.73;;;11.30;26.80;;;;;;5061245;28;46709;-66
2022/03/27 08:18:23;;;;;;;33.50;17.60;;;11.40;26.30;;;;;;5065165;28;46447;-67
2022/03/27 08:20:49;;;;;;;34.37;17.40;;;11.60;26.00;;;;;;5062038;28;46260;-65
2022/03/27 08:23:15;;;;;;;34.27;17.33;;;11.80;25.80;;;;;;5062181;28;46397;-65
2022/03/27 08:28:26;;;;;;;44.33;18.53;;;12.10;24.80;;;;;;5062697;28;46644;-64
2022/03/27 08:30:51;;;;;;;41.83;18.30;;;12.30;24.60;;;;;;5059236;28;46326;-66
2022/03/27 08:33:17;;;;;;;46.67;18.43;;;12.40;24.40;;;;;;5062598;28;46406;-64
2022/03/27 08:35:43;;;;;;;41.33;18.17;;;12.60;24.10;;;;;;5060226;28;45917;-64
2022/03/27 08:38:14;;;;;;;33.70;18.17;;;12.70;23.80;;;;;;5060247;28;46574;-64
2022/03/27 08:40:41;;;;;;;40.80;19.90;;;12.80;23.50;;;;;;5062638;28;46714;-64
2022/03/27 08:43:13;;;;;;;40.40;19.90;;;13.00;23.30;;;;;;5063015;28;46425;-64
2022/03/27 08:45:39;;;;;;;41.97;19.20;;;13.10;22.90;;;;;;5059797;28;46240;-64
2022/03/27 08:48:05;;;;;;;36.27;19.27;;;13.10;22.60;;;;;;5058700;28;47263;-64
2022/03/27 08:50:50;;;;;;;34.17;18.07;;;13.00;21.60;;;;;;5059936;28;46283;-63
2022/03/27 08:53:27;;;;;;;49.70;20.53;;;12.80;21.30;;;;;;5057968;28;46685;-64
2022/03/27 08:56:06;;;;;;;46.40;19.23;;;12.90;21.80;;;;;;5062927;28;46260;-64
2022/03/27 08:58:35;;;;;;;40.63;18.70;;;13.10;21.70;;;;;;5061164;28;47104;-64
2022/03/27 09:01:04;;;;;;;34.73;17.70;;;13.20;21.60;;;;;;5062599;28;46533;-64
2022/03/27 09:03:30;;;;;;;40.87;18.63;;;13.30;21.70;;;;;;5059345;28;45833;-64
2022/03/27 09:05:56;;;;;;;35.80;17.67;;;13.50;21.30;;;;;;5063341;28;46372;-64
2022/03/27 09:08:22;;;;;;;41.93;19.53;;;13.60;20.60;;;;;;5064459;28;47018;-64
2022/03/27 09:10:48;;;;;;;44.70;18.27;;;13.60;20.20;;;;;;5064478;28;46332;-64
2022/03/27 09:13:18;;;;;;;37.80;18.03;;;13.60;20.20;;;;;;5047131;28;46404;-65
2022/03/27 09:15:45;;;;;;;38.00;17.90;;;13.70;20.00;;;;;;5043033;28;46373;-64
2022/03/27 09:18:13;;;;;;;41.90;18.13;;;13.80;19.90;;;;;;5059673;28;46103;-64
2022/03/27 09:20:47;;;;;;;39.97;18.40;;;13.90;20.10;;;;;;5061039;28;46501;-64
2022/03/27 09:23:26;;;;;;;36.57;18.80;;;14.00;20.00;;;;;;5068937;28;46415;-63
2022/03/27 09:25:57;;;;;;;38.10;19.10;;;14.20;20.30;;;;;;5059749;28;46446;-64
2022/03/27 09:28:25;;;;;;;38.50;19.43;;;14.10;20.20;;;;;;5060949;28;46390;-64
2022/03/27 09:30:52;;;;;;;43.57;19.23;;;14.20;20.30;;;;;;5059712;28;46914;-64
2022/03/27 09:33:48;;;;;;;40.93;19.90;;;14.40;20.40;;;;;;5057617;28;46342;-64
2022/03/27 09:36:37;;;;;;;43.23;18.70;;;14.70;20.10;;;;;;5060153;28;46581;-64
2022/03/27 09:39:05;;;;;;;38.03;18.73;;;14.80;19.60;;;;;;5066645;28;46503;-64
2022/03/27 09:41:41;;;;;;;41.17;20.17;;;14.80;19.40;;;;;;5061923;28;46354;-71
2022/03/27 09:44:10;;;;;;;37.67;19.30;;;15.00;18.90;;;;;;5041007;28;46454;-63
2022/03/27 09:47:05;;;;;;;41.30;19.57;;;15.10;18.90;;;;;;5052809;28;46516;-63
2022/03/27 09:49:31;;;;;;;41.03;19.17;;;15.10;18.90;;;;;;5049935;28;46476;-64
2022/03/27 09:51:59;;;;;;;44.43;19.77;;;15.20;19.00;;;;;;5060804;28;46382;-63
2022/03/27 09:54:27;;;;;;;41.37;19.87;;;15.20;19.00;;;;;;5060452;28;46359;-63
2022/03/27 09:56:53;;;;;;;34.37;18.97;;;15.20;18.90;;;;;;5061568;28;46409;-64
2022/03/27 09:59:46;;;;;;;46.53;19.07;;;15.20;18.40;;;;;;5059364;28;46500;-64
2022/03/27 10:02:19;;;;;;;36.63;19.67;;;15.40;18.20;;;;;;5059816;28;46659;-64
2022/03/27 10:04:58;;;;;;;42.63;19.67;;;15.40;17.80;;;;;;5057650;28;46041;-64
2022/03/27 10:07:25;;;;;;;38.30;18.37;;;15.40;17.70;;;;;;5061673;28;46367;-65
2022/03/27 10:09:55;;;;;;;38.13;20.20;;;15.50;17.50;;;;;;5067009;28;46402;-65
2022/03/27 10:12:27;;;;;;;38.20;19.73;;;15.60;16.90;;;;;;5046395;28;46489;-65
2022/03/27 10:14:56;;;;;;;37.87;19.57;;;15.60;16.80;;;;;;5060313;28;46395;-64
2022/03/27 10:17:26;;;;;;;42.00;19.83;;;15.70;16.90;;;;;;5065589;28;46490;-65
2022/03/27 10:19:54;;;;;;;40.40;18.57;;;15.70;17.80;;;;;;5065701;28;46971;-66
2022/03/27 10:22:21;;;;;;;34.50;18.27;;;15.80;16.60;;;;;;5060557;28;46448;-64
2022/03/27 10:24:51;;;;;;;36.73;19.07;;;15.80;17.30;;;;;;5059912;28;47332;-65
2022/03/27 10:27:19;;;;;;;43.83;18.80;;;15.90;16.00;;;;;;5060744;28;45912;-64
2022/03/27 10:29:46;;;;;;;39.87;18.37;;;16.00;16.00;;;;;;5056471;28;46672;-64
2022/03/27 10:32:12;;;;;;;34.97;18.80;;;16.00;15.40;;;;;;5058500;28;46382;-65
2022/03/27 10:35:03;;;;;;;34.23;16.70;;;16.00;15.20;;;;;;5056338;28;46413;-65
2022/03/27 10:38:03;;;;;;;36.87;17.93;;;16.10;14.90;;;;;;5060195;28;46579;-67
2022/03/27 10:40:40;;;;;;;38.93;19.00;;;16.20;14.80;;;;;;5063478;28;46372;-67
2022/03/27 10:43:45;;;;;;;31.87;17.57;;;16.20;14.30;;;;;;5059326;28;46355;-66
2022/03/27 10:46:21;;;;;;;31.43;16.27;;;16.20;14.30;;;;;;5065448;28;45808;-65
2022/03/27 10:48:49;;;;;;;36.67;17.30;;;16.30;14.10;;;;;;5061133;28;46571;-66
2022/03/27 10:51:28;;;;;;;30.70;15.60;;;16.40;13.80;;;;;;5059089;28;46964;-64
2022/03/27 10:54:04;;;;;;;32.33;16.43;;;16.50;13.40;;;;;;5057692;28;46351;-65
2022/03/27 10:56:36;;;;;;;31.23;15.80;;;16.50;13.00;;;;;;5059119;28;46445;-64
2022/03/27 10:59:15;;;;;;;35.90;18.47;;;16.50;12.80;;;;;;5061781;28;46327;-66
2022/03/27 11:01:43;;;;;;;34.60;17.40;;;16.40;12.50;;;;;;5059797;28;47163;-64
2022/03/27 11:04:13;;;;;;;42.47;18.03;;;16.50;12.70;;;;;;5060757;28;46721;-65
2022/03/27 11:06:44;;;;;;;35.00;18.03;;;16.60;13.00;;;;;;5053989;28;46396;-65
2022/03/27 11:09:29;;;;;;;32.97;16.40;;;16.60;13.20;;;;;;5060347;28;46472;-63
2022/03/27 11:11:54;;;;;;;35.87;18.30;;;16.70;12.80;;;;;;5063974;28;46286;-64
2022/03/27 11:14:46;;;;;;;36.53;17.00;;;16.80;12.50;;;;;;5058949;28;46445;-64
2022/03/27 11:17:13;;;;;;;37.30;17.47;;;16.80;12.30;;;;;;5057993;28;46439;-64
2022/03/27 11:19:47;;;;;;;39.03;17.20;;;16.80;12.60;;;;;;5059081;28;46353;-64
2022/03/27 11:22:40;;;;;;;31.03;15.70;;;16.90;12.30;;;;;;5059590;28;46322;-64
2022/03/27 11:25:29;;;;;;;33.00;13.80;;;16.90;11.10;;;;;;5061640;28;46538;-64
2022/03/27 11:28:15;;;;;;;38.37;18.40;;;16.80;11.30;;;;;;5062148;28;46732;-65
2022/03/27 11:30:50;;;;;;;31.50;16.50;;;16.90;11.70;;;;;;5059427;28;46448;-64
2022/03/27 11:33:29;;;;;;;33.43;16.60;;;16.90;12.00;;;;;;5061004;28;46530;-64
2022/03/27 11:36:11;;;;;;;31.77;16.37;;;17.00;11.80;;;;;;5055903;28;46370;-64
2022/03/27 11:38:51;;;;;;;30.60;15.67;;;17.20;12.10;;;;;;5057457;28;46530;-64
2022/03/27 11:41:38;;;;;;;35.03;18.67;;;17.10;11.80;;;;;;5055444;28;46582;-64
2022/03/27 11:47:20;;;;;;;26.93;13.90;;;17.30;11.40;;;;;;5058082;28;46397;-65
2022/03/27 11:49:48;;;;;;;29.17;15.27;;;17.40;11.20;;;;;;5054782;28;45960;-64
2022/03/27 11:52:22;;;;;;;31.87;14.03;;;17.30;11.00;;;;;;5057517;28;46501;-65
2022/03/27 11:54:48;;;;;;;33.37;15.33;;;17.20;10.50;;;;;;5054936;28;47287;-67
2022/03/27 11:57:18;;;;;;;30.87;15.90;;;17.20;10.50;;;;;;5058013;28;46284;-67
2022/03/27 11:59:49;;;;;;;25.60;13.70;;;17.10;10.60;;;;;;5060674;28;46240;-68
2022/03/27 12:02:16;;;;;;;31.57;15.30;;;17.20;11.00;;;;;;5049859;28;46582;-66
2022/03/27 12:04:59;;;;;;;35.03;14.20;;;17.30;10.50;;;;;;5061372;28;46492;-67
2022/03/27 12:07:26;;;;;;;30.73;15.10;;;17.40;10.30;;;;;;5061749;28;46418;-66
2022/03/27 12:10:00;;;;;;;31.00;15.50;;;17.40;10.30;;;;;;5063099;28;46361;-66
2022/03/27 12:12:27;;;;;;;34.80;18.10;;;17.30;9.80;;;;;;5060707;28;46237;-65
2022/03/27 12:14:54;;;;;;;33.50;17.27;;;17.30;10.40;;;;;;5061147;28;46852;-67
2022/03/27 12:17:21;;;;;;;31.60;16.23;;;17.50;10.80;;;;;;5061424;28;46491;-65
2022/03/27 12:20:00;;;;;;;25.70;15.00;;;17.50;10.70;;;;;;5063274;28;46540;-65
2022/03/27 12:22:37;;;;;;;36.67;15.70;;;17.60;10.50;;;;;;5061295;28;46441;-65
2022/03/27 12:25:07;;;;;;;34.37;16.03;;;17.70;9.80;;;;;;5063802;28;46627;-65
2022/03/27 12:30:20;;;;;;;33.60;17.30;;;17.60;11.00;;;;;;5058043;28;46353;-66
2022/03/27 12:32:47;;;;;;;29.03;15.37;;;17.60;10.20;;;;;;5062633;28;46550;-66
2022/03/27 12:35:22;;;;;;;33.87;16.67;;;17.60;10.60;;;;;;5069817;28;47309;-66
2022/03/27 12:37:47;;;;;;;33.13;16.53;;;17.70;10.80;;;;;;5064932;28;45990;-65
2022/03/27 12:40:13;;;;;;;28.57;15.80;;;17.70;10.70;;;;;;5070325;28;45852;-65
2022/03/27 12:42:46;;;;;;;26.87;13.80;;;17.80;10.20;;;;;;5062917;28;46369;-66
2022/03/27 12:45:17;;;;;;;30.53;14.07;;;17.90;9.90;;;;;;5062023;28;46561;-66
2022/03/27 12:47:49;;;;;;;23.53;14.23;;;17.90;9.90;;;;;;5063577;28;46453;-67
2022/03/27 12:50:40;;;;;;;40.57;15.77;;;17.90;9.80;;;;;;5060354;28;45960;-65
2022/03/27 12:53:20;;;;;;;30.97;14.87;;;17.90;9.80;;;;;;5062775;28;46353;-65
2022/03/27 12:55:57;;;;;;;31.93;15.67;;;17.90;9.90;;;;;;5062949;28;46347;-65